createdAt,value
2023-04-29T00:01:28.327Z,33.30
2023-04-29T00:03:55.171Z,33.17
2023-04-29T00:06:22.642Z,33.77
2023-04-29T00:08:49.320Z,33.87
2023-04-29T00:11:16.346Z,33.53
2023-04-29T00:13:43.059Z,32.80
2023-04-29T00:16:12.365Z,32.23
2023-04-29T00:18:38.928Z,35.33
2023-04-29T00:21:08.633Z,34.57
2023-04-29T00:23:35.513Z,41.50
2023-04-29T00:26:02.066Z,36.87
2023-04-29T00:28:28.924Z,40.53
2023-04-29T00:30:56.358Z,43.07
2023-04-29T00:33:25.422Z,42.73
2023-04-29T00:35:52.215Z,45.60
2023-04-29T00:38:18.792Z,46.87
2023-04-29T00:40:45.513Z,43.63
2023-04-29T00:43:12.063Z,52.27
2023-04-29T00:45:38.682Z,52.77
2023-04-29T00:48:05.270Z,59.57
2023-04-29T00:50:31.838Z,62.33
2023-04-29T00:52:58.345Z,62.00
2023-04-29T00:55:26.562Z,64.00
2023-04-29T00:57:53.581Z,65.23
2023-04-29T01:00:20.553Z,65.57
2023-04-29T01:02:47.408Z,65.20
2023-04-29T01:05:15.576Z,65.40
2023-04-29T01:07:47.112Z,67.97
2023-04-29T01:10:34.287Z,65.77
2023-04-29T01:13:14.410Z,72.40
2023-04-29T01:15:44.072Z,67.83
2023-04-29T01:18:10.562Z,72.57
2023-04-29T01:20:38.097Z,73.30
2023-04-29T01:23:04.655Z,72.03
2023-04-29T01:25:31.174Z,66.97
2023-04-29T01:28:04.101Z,66.33
2023-04-29T01:30:33.803Z,65.53
2023-04-29T01:33:00.261Z,64.43
2023-04-29T01:35:34.259Z,62.60
2023-04-29T01:38:17.072Z,62.80
2023-04-29T01:41:10.324Z,66.47
2023-04-29T01:43:37.969Z,62.47
2023-04-29T01:46:06.759Z,62.83
2023-04-29T01:48:33.400Z,67.50
2023-04-29T01:51:02.420Z,70.60
2023-04-29T01:53:28.956Z,72.67
2023-04-29T01:55:55.413Z,69.73
2023-04-29T01:58:21.919Z,73.20
2023-04-29T02:00:48.452Z,71.70
2023-04-29T02:03:15.098Z,72.53
2023-04-29T02:05:41.684Z,73.47
2023-04-29T02:08:09.661Z,78.07
2023-04-29T02:10:36.294Z,75.73
2023-04-29T02:13:03.187Z,66.93
2023-04-29T02:15:29.776Z,74.17
2023-04-29T02:17:56.368Z,66.03
2023-04-29T02:20:22.953Z,60.73
2023-04-29T02:22:49.639Z,55.10
2023-04-29T02:25:16.125Z,54.43
2023-04-29T02:27:42.627Z,46.60
2023-04-29T02:30:09.511Z,46.93
2023-04-29T02:32:36.314Z,50.40
2023-04-29T02:35:02.901Z,51.73
2023-04-29T02:37:29.373Z,46.30
2023-04-29T02:39:56.000Z,39.70
2023-04-29T02:42:22.597Z,42.67
2023-04-29T02:44:49.145Z,39.97
2023-04-29T02:47:15.715Z,36.57
2023-04-29T02:49:42.197Z,36.30
2023-04-29T02:52:08.706Z,39.63
2023-04-29T02:54:35.425Z,35.53
2023-04-29T02:57:04.171Z,36.27
2023-04-29T02:59:30.716Z,35.63
2023-04-29T03:01:57.458Z,37.90
2023-04-29T03:04:24.218Z,38.43
2023-04-29T03:06:51.665Z,34.23
2023-04-29T03:09:18.148Z,35.00
2023-04-29T03:11:47.114Z,35.80
2023-04-29T03:14:13.633Z,42.73
2023-04-29T03:16:40.233Z,37.63
2023-04-29T03:19:06.872Z,35.00
2023-04-29T03:21:33.901Z,34.47
2023-04-29T03:24:00.382Z,32.20
2023-04-29T03:26:26.887Z,32.10
2023-04-29T03:28:53.741Z,31.43
2023-04-29T03:31:21.508Z,31.90
2023-04-29T03:33:48.111Z,29.70
2023-04-29T03:36:15.495Z,31.27
2023-04-29T03:38:42.000Z,29.97
2023-04-29T03:41:08.623Z,29.10
2023-04-29T03:43:35.200Z,27.70
2023-04-29T03:46:01.763Z,28.40
2023-04-29T03:48:28.343Z,31.83
2023-04-29T03:50:54.846Z,31.03
2023-04-29T03:53:22.406Z,29.73
2023-04-29T03:55:49.015Z,26.73
2023-04-29T03:58:15.502Z,26.90
2023-04-29T04:00:42.406Z,28.27
2023-04-29T04:03:09.341Z,26.00
2023-04-29T04:05:35.924Z,25.93
2023-04-29T04:08:02.438Z,26.30
2023-04-29T04:10:29.021Z,23.83
2023-04-29T04:12:56.049Z,26.37
2023-04-29T04:15:22.838Z,23.43
2023-04-29T04:17:49.481Z,24.50
2023-04-29T04:20:19.629Z,27.70
2023-04-29T04:22:46.185Z,25.17
2023-04-29T04:25:12.757Z,28.43
2023-04-29T04:27:39.278Z,23.70
2023-04-29T04:30:06.217Z,27.23
2023-04-29T04:32:32.811Z,30.87
2023-04-29T04:34:59.780Z,24.77
2023-04-29T04:37:26.264Z,24.60
2023-04-29T04:39:53.191Z,25.80
2023-04-29T04:42:22.803Z,26.37
2023-04-29T04:44:49.295Z,26.90
2023-04-29T04:47:16.130Z,28.40
2023-04-29T04:49:42.666Z,26.63
2023-04-29T04:52:10.111Z,24.47
2023-04-29T04:54:36.599Z,23.73
2023-04-29T04:57:06.286Z,24.90
2023-04-29T04:59:33.863Z,23.63
2023-04-29T05:02:00.521Z,23.10
2023-04-29T05:04:27.543Z,23.80
2023-04-29T05:06:54.136Z,24.30
2023-04-29T05:09:20.755Z,23.73
2023-04-29T05:11:47.309Z,23.10
2023-04-29T05:14:17.026Z,25.23
2023-04-29T05:16:45.146Z,22.87
2023-04-29T05:19:11.759Z,21.47
2023-04-29T05:21:38.267Z,24.10
2023-04-29T05:24:05.189Z,23.40
2023-04-29T05:26:31.699Z,22.50
2023-04-29T05:28:58.215Z,23.00
2023-04-29T05:31:24.737Z,23.00
2023-04-29T05:33:51.276Z,21.90
2023-04-29T05:36:17.817Z,22.60
2023-04-29T05:38:46.576Z,23.30
2023-04-29T05:41:14.374Z,24.33
2023-04-29T05:43:40.906Z,26.80
2023-04-29T05:46:07.543Z,24.77
2023-04-29T05:48:34.119Z,26.70
2023-04-29T05:51:00.911Z,28.67
2023-04-29T05:53:27.416Z,23.87
2023-04-29T05:55:54.104Z,22.13
2023-04-29T05:58:20.657Z,23.10
2023-04-29T06:00:49.846Z,25.60
2023-04-29T06:03:17.110Z,22.83
2023-04-29T06:05:44.148Z,22.27
2023-04-29T06:08:10.962Z,20.37
2023-04-29T06:10:38.160Z,22.10
2023-04-29T06:13:04.639Z,21.40
2023-04-29T06:15:31.545Z,25.53
2023-04-29T06:17:58.075Z,21.63
2023-04-29T06:20:24.634Z,21.17
2023-04-29T06:22:51.178Z,22.70
2023-04-29T06:25:17.802Z,20.87
2023-04-29T06:27:44.270Z,20.87
2023-04-29T06:30:11.718Z,20.03
2023-04-29T06:32:39.192Z,23.13
2023-04-29T06:35:05.955Z,23.90
2023-04-29T06:37:32.613Z,20.00
2023-04-29T06:39:59.098Z,22.40
2023-04-29T06:42:26.720Z,20.63
2023-04-29T06:44:53.215Z,21.43
2023-04-29T06:47:20.338Z,28.57
2023-04-29T06:49:47.338Z,24.87
2023-04-29T06:52:14.084Z,22.47
2023-04-29T06:54:40.679Z,23.47
2023-04-29T06:57:07.242Z,24.27
2023-04-29T06:59:33.907Z,24.00
2023-04-29T07:02:00.591Z,22.07
2023-04-29T07:04:27.157Z,23.90
2023-04-29T07:06:54.451Z,22.40
2023-04-29T07:09:21.026Z,24.13
2023-04-29T07:11:47.544Z,22.03
2023-04-29T07:14:14.119Z,24.50
2023-04-29T07:16:40.772Z,24.53
2023-04-29T07:19:07.372Z,20.43
2023-04-29T07:21:33.914Z,26.20
2023-04-29T07:24:02.590Z,21.83
2023-04-29T07:26:29.088Z,20.67
2023-04-29T07:28:55.815Z,18.87
2023-04-29T07:31:22.725Z,17.97
2023-04-29T07:33:49.554Z,19.23
2023-04-29T07:36:16.172Z,21.90
2023-04-29T07:38:42.750Z,21.97
2023-04-29T07:41:09.292Z,23.17
2023-04-29T07:43:36.993Z,21.13
2023-04-29T07:46:03.591Z,28.57
2023-04-29T07:48:30.250Z,23.93
2023-04-29T07:50:57.412Z,24.57
2023-04-29T07:53:23.984Z,24.57
2023-04-29T07:55:51.043Z,25.70
2023-04-29T07:58:17.525Z,24.47
2023-04-29T08:00:44.050Z,27.87
2023-04-29T08:03:10.731Z,25.33
2023-04-29T08:05:37.546Z,27.90
2023-04-29T08:08:04.428Z,25.00
2023-04-29T08:10:31.268Z,28.57
2023-04-29T08:12:58.256Z,27.87
2023-04-29T08:15:24.891Z,27.90
2023-04-29T08:17:51.406Z,27.00
2023-04-29T08:20:18.054Z,24.73
2023-04-29T08:22:44.596Z,25.97
2023-04-29T08:25:11.701Z,27.57
2023-04-29T08:27:38.224Z,30.67
2023-04-29T08:30:04.983Z,32.70
2023-04-29T08:32:32.339Z,24.93
2023-04-29T08:34:59.259Z,34.17
2023-04-29T08:37:26.105Z,31.17
2023-04-29T08:39:52.587Z,30.33
2023-04-29T08:42:21.134Z,28.07
2023-04-29T08:44:48.281Z,26.73
2023-04-29T08:47:16.500Z,32.03
2023-04-29T08:49:43.057Z,31.53
2023-04-29T08:52:09.680Z,32.93
2023-04-29T08:54:36.421Z,30.10
2023-04-29T08:57:03.995Z,30.77
2023-04-29T08:59:30.649Z,32.23
2023-04-29T09:01:57.548Z,34.23
2023-04-29T09:04:27.220Z,33.00
2023-04-29T09:06:56.509Z,31.43
2023-04-29T09:09:24.654Z,34.07
2023-04-29T09:11:51.345Z,30.67
2023-04-29T09:14:19.105Z,29.87
2023-04-29T09:16:48.838Z,32.93
2023-04-29T09:19:32.206Z,26.67
2023-04-29T09:21:59.361Z,26.87
2023-04-29T09:24:29.853Z,26.27
2023-04-29T09:26:56.886Z,31.23
2023-04-29T09:29:24.257Z,30.60
2023-04-29T09:31:58.975Z,27.77
2023-04-29T09:34:32.752Z,30.20
2023-04-29T09:36:59.480Z,25.80
2023-04-29T09:39:26.452Z,25.37
2023-04-29T09:41:52.964Z,30.87
2023-04-29T09:44:23.601Z,23.93
2023-04-29T09:46:57.640Z,27.23
2023-04-29T09:49:25.235Z,25.53
2023-04-29T09:51:56.017Z,27.83
2023-04-29T09:54:23.694Z,26.53
2023-04-29T09:56:52.297Z,29.60
2023-04-29T09:59:21.955Z,25.17
2023-04-29T10:01:50.023Z,26.17
2023-04-29T10:04:17.693Z,27.97
2023-04-29T10:06:45.175Z,27.97
2023-04-29T10:09:15.717Z,26.67
2023-04-29T10:11:43.791Z,23.70
2023-04-29T10:14:15.459Z,23.17
2023-04-29T10:16:49.212Z,24.40
2023-04-29T10:19:19.763Z,24.03
2023-04-29T10:21:49.940Z,26.37
2023-04-29T10:24:18.389Z,26.40
2023-04-29T10:26:45.734Z,25.80
2023-04-29T10:29:14.107Z,24.40
2023-04-29T10:31:41.507Z,25.43
2023-04-29T10:34:08.179Z,23.00
2023-04-29T10:36:35.048Z,23.97
2023-04-29T10:39:04.420Z,27.17
2023-04-29T10:41:34.601Z,23.70
2023-04-29T10:44:03.612Z,25.07
2023-04-29T10:46:30.711Z,23.20
2023-04-29T10:49:01.274Z,22.67
2023-04-29T10:51:32.336Z,23.73
2023-04-29T10:53:59.918Z,21.87
2023-04-29T10:56:37.379Z,23.87
2023-04-29T10:59:04.084Z,21.27
2023-04-29T11:01:51.329Z,21.27
2023-04-29T11:04:21.676Z,18.77
2023-04-29T11:06:52.515Z,21.60
2023-04-29T11:09:22.402Z,21.93
2023-04-29T11:11:49.376Z,22.37
2023-04-29T11:14:16.758Z,28.60
2023-04-29T11:16:52.358Z,22.73
2023-04-29T11:19:20.609Z,23.10
2023-04-29T11:21:47.469Z,23.83
2023-04-29T11:24:18.787Z,22.97
2023-04-29T11:26:46.608Z,24.97
2023-04-29T11:29:18.476Z,23.30
2023-04-29T11:31:45.073Z,22.90
2023-04-29T11:34:14.443Z,26.00
2023-04-29T11:36:40.991Z,27.37
2023-04-29T11:39:08.401Z,21.80
2023-04-29T11:41:36.281Z,22.10
2023-04-29T11:44:05.097Z,23.60
2023-04-29T11:46:32.076Z,24.87
2023-04-29T11:49:02.021Z,22.10
2023-04-29T11:51:28.809Z,21.40
2023-04-29T11:53:58.145Z,23.30
2023-04-29T11:56:25.692Z,23.17
2023-04-29T11:58:57.108Z,22.50
2023-04-29T12:01:25.319Z,27.63
2023-04-29T12:03:52.170Z,31.10
2023-04-29T12:06:18.836Z,42.97
2023-04-29T12:08:47.101Z,23.13
2023-04-29T12:11:14.139Z,23.40
2023-04-29T12:13:41.129Z,22.83
2023-04-29T12:16:07.860Z,20.13
2023-04-29T12:18:34.919Z,22.30
2023-04-29T12:21:01.445Z,22.90
2023-04-29T12:23:28.202Z,19.13
2023-04-29T12:26:01.078Z,19.00
2023-04-29T12:28:27.675Z,16.27
2023-04-29T12:30:54.994Z,15.73
2023-04-29T12:33:23.179Z,13.77
2023-04-29T12:35:50.987Z,11.63
2023-04-29T12:38:27.785Z,13.33
2023-04-29T12:40:59.263Z,13.70
2023-04-29T12:43:26.354Z,11.90
2023-04-29T12:45:54.531Z,13.37
2023-04-29T12:48:29.166Z,15.10
2023-04-29T12:50:58.655Z,11.43
2023-04-29T12:53:25.430Z,13.23
2023-04-29T12:55:52.454Z,12.90
2023-04-29T12:58:19.311Z,13.83
2023-04-29T13:00:46.162Z,12.33
2023-04-29T13:03:13.150Z,11.43
2023-04-29T13:05:40.852Z,12.90
2023-04-29T13:08:08.442Z,12.87
2023-04-29T13:10:35.689Z,12.33
2023-04-29T13:13:02.717Z,13.37
2023-04-29T13:15:29.289Z,13.43
2023-04-29T13:17:55.889Z,10.97
2023-04-29T13:20:22.481Z,12.97
2023-04-29T13:22:49.043Z,16.23
2023-04-29T13:25:16.529Z,15.47
2023-04-29T13:27:44.171Z,14.03
2023-04-29T13:30:11.138Z,14.47
2023-04-29T13:32:44.908Z,14.90
2023-04-29T13:35:15.860Z,13.37
2023-04-29T13:37:42.380Z,17.40
2023-04-29T13:40:09.212Z,12.07
2023-04-29T13:42:45.246Z,14.97
2023-04-29T13:45:16.771Z,18.63
2023-04-29T13:48:03.706Z,14.07
2023-04-29T13:53:35.857Z,11.40
2023-04-29T14:01:11.330Z,13.30
2023-04-29T14:03:35.625Z,12.70
2023-04-29T14:06:02.603Z,11.63
2023-04-29T14:08:29.179Z,11.23
2023-04-29T14:10:55.655Z,10.20
2023-04-29T14:13:22.354Z,9.30
2023-04-29T14:15:48.935Z,12.67
2023-04-29T14:18:15.613Z,13.60
2023-04-29T14:20:42.113Z,10.30
2023-04-29T14:23:08.631Z,9.20
2023-04-29T14:25:35.137Z,10.17
2023-04-29T14:28:01.704Z,11.70
2023-04-29T14:30:28.265Z,8.90
2023-04-29T14:32:54.834Z,11.57
2023-04-29T14:35:21.375Z,11.83
2023-04-29T14:37:47.909Z,10.07
2023-04-29T14:40:14.394Z,10.53
2023-04-29T14:42:41.014Z,12.80
2023-04-29T14:45:10.593Z,11.80
2023-04-29T14:47:37.112Z,12.70
2023-04-29T14:50:04.494Z,13.77
2023-04-29T14:52:31.001Z,15.37
2023-04-29T14:54:57.690Z,14.23
2023-04-29T14:57:24.154Z,10.77
2023-04-29T14:59:50.833Z,11.13
2023-04-29T15:02:17.323Z,9.20
2023-04-29T15:04:46.165Z,10.63
2023-04-29T15:07:13.876Z,11.67
2023-04-29T15:09:42.899Z,10.43
2023-04-29T15:12:17.077Z,10.40
2023-04-29T15:14:43.598Z,11.97
2023-04-29T15:17:10.662Z,9.10
2023-04-29T15:19:37.450Z,11.77
2023-04-29T15:22:04.158Z,9.00
2023-04-29T15:24:31.208Z,11.03
2023-04-29T15:26:58.215Z,9.33
2023-04-29T15:29:24.812Z,9.50
2023-04-29T15:31:52.041Z,10.70
2023-04-29T15:34:18.655Z,7.53
2023-04-29T15:36:45.174Z,10.13
2023-04-29T15:39:12.369Z,8.40
2023-04-29T15:41:39.202Z,8.27
2023-04-29T15:44:05.827Z,7.00
2023-04-29T15:46:32.378Z,11.30
2023-04-29T15:48:59.064Z,8.93
2023-04-29T15:51:25.577Z,9.57
2023-04-29T15:53:52.176Z,10.73
2023-04-29T15:56:18.648Z,9.27
2023-04-29T15:58:45.146Z,11.67
2023-04-29T16:01:12.859Z,9.77
2023-04-29T16:03:39.418Z,8.77
2023-04-29T16:06:06.388Z,9.87
2023-04-29T16:08:32.905Z,15.53
2023-04-29T16:10:59.394Z,11.47
2023-04-29T16:13:25.879Z,9.60
2023-04-29T16:15:52.372Z,10.97
2023-04-29T16:18:19.402Z,8.80
2023-04-29T16:20:46.381Z,11.10
2023-04-29T16:23:12.871Z,10.87
2023-04-29T16:25:40.569Z,10.83
2023-04-29T16:28:07.154Z,9.80
2023-04-29T16:30:34.592Z,8.23
2023-04-29T16:33:01.214Z,9.63
2023-04-29T16:35:29.793Z,9.57
2023-04-29T16:37:56.490Z,11.27
2023-04-29T16:40:24.611Z,11.00
2023-04-29T16:42:57.731Z,8.90
2023-04-29T16:45:25.550Z,8.73
2023-04-29T16:47:52.291Z,10.30
2023-04-29T16:50:18.937Z,8.17
2023-04-29T16:52:47.546Z,7.33
2023-04-29T16:55:14.188Z,7.37
2023-04-29T16:57:40.739Z,7.07
2023-04-29T17:00:10.542Z,7.20
2023-04-29T17:02:37.711Z,9.23
2023-04-29T17:05:04.436Z,11.53
2023-04-29T17:07:31.595Z,8.03
2023-04-29T17:09:58.133Z,6.63
2023-04-29T17:12:24.667Z,11.37
2023-04-29T17:14:51.809Z,8.83
2023-04-29T17:17:18.902Z,9.47
2023-04-29T17:19:50.052Z,8.43
2023-04-29T17:22:19.997Z,8.97
2023-04-29T17:24:46.600Z,6.90
2023-04-29T17:27:13.420Z,8.00
2023-04-29T17:29:40.074Z,8.37
2023-04-29T17:32:15.364Z,9.80
2023-04-29T17:34:41.880Z,8.10
2023-04-29T17:37:08.423Z,8.93
2023-04-29T17:39:34.999Z,7.77
2023-04-29T17:42:01.541Z,8.27
2023-04-29T17:44:28.129Z,8.57
2023-04-29T17:46:57.423Z,7.43
2023-04-29T17:49:23.956Z,7.90
2023-04-29T17:51:50.507Z,10.17
2023-04-29T17:54:17.203Z,8.20
2023-04-29T17:56:43.770Z,9.60
2023-04-29T17:59:11.247Z,7.13
2023-04-29T18:01:37.904Z,6.70
2023-04-29T18:04:04.992Z,7.27
2023-04-29T18:06:40.887Z,5.83
2023-04-29T18:09:07.596Z,6.83
2023-04-29T18:11:34.146Z,7.07
2023-04-29T18:14:01.208Z,7.20
2023-04-29T18:16:27.977Z,7.57
2023-04-29T18:18:56.782Z,6.80
2023-04-29T18:21:24.238Z,6.17
2023-04-29T18:23:50.892Z,7.00
2023-04-29T18:26:17.676Z,5.67
2023-04-29T18:28:44.740Z,8.53
2023-04-29T18:31:14.002Z,7.37
2023-04-29T18:33:40.566Z,7.90
2023-04-29T18:36:07.114Z,8.87
2023-04-29T18:38:33.699Z,10.77
2023-04-29T18:41:00.249Z,6.87
2023-04-29T18:43:29.608Z,7.10
2023-04-29T18:45:57.302Z,9.63
2023-04-29T18:48:24.072Z,8.60
2023-04-29T18:50:54.542Z,7.57
2023-04-29T18:53:21.184Z,9.27
2023-04-29T18:55:47.764Z,6.90
2023-04-29T18:58:24.714Z,9.00
2023-04-29T19:00:51.350Z,7.23
2023-04-29T19:03:17.970Z,8.13
2023-04-29T19:05:44.920Z,8.03
2023-04-29T19:08:11.624Z,6.97
2023-04-29T19:10:38.170Z,8.50
2023-04-29T19:13:04.684Z,9.60
2023-04-29T19:15:32.267Z,9.67
2023-04-29T19:17:58.985Z,6.90
2023-04-29T19:20:25.946Z,7.37
2023-04-29T19:22:52.542Z,6.57
2023-04-29T19:25:19.228Z,8.77
2023-04-29T19:27:45.849Z,8.37
2023-04-29T19:30:13.226Z,8.00
2023-04-29T19:32:39.925Z,9.57
2023-04-29T19:35:06.757Z,7.30
2023-04-29T19:37:33.298Z,8.00
2023-04-29T19:39:59.794Z,7.27
2023-04-29T19:42:27.158Z,10.03
2023-04-29T19:44:53.661Z,7.33
2023-04-29T19:47:20.353Z,11.40
2023-04-29T19:49:47.461Z,6.83
2023-04-29T19:52:17.120Z,8.57
2023-04-29T19:54:43.617Z,7.50
2023-04-29T19:57:10.213Z,7.47
2023-04-29T19:59:36.699Z,6.57
2023-04-29T20:02:03.206Z,10.93
2023-04-29T20:04:30.115Z,9.57
2023-04-29T20:06:56.663Z,8.80
2023-04-29T20:09:23.170Z,7.37
2023-04-29T20:11:49.716Z,8.43
2023-04-29T20:14:16.226Z,8.27
2023-04-29T20:16:43.153Z,10.77
2023-04-29T20:19:09.718Z,10.17
2023-04-29T20:21:36.557Z,10.37
2023-04-29T20:24:03.205Z,8.33
2023-04-29T20:26:30.180Z,10.00
2023-04-29T20:28:56.666Z,10.03
2023-04-29T20:31:23.698Z,8.40
2023-04-29T20:33:50.205Z,8.57
2023-04-29T20:36:17.010Z,10.50
2023-04-29T20:38:43.930Z,9.80
2023-04-29T20:41:10.509Z,8.93
2023-04-29T20:43:37.087Z,10.23
2023-04-29T20:46:03.602Z,12.57
2023-04-29T20:48:30.156Z,11.67
2023-04-29T20:50:56.639Z,8.97
2023-04-29T20:53:23.132Z,9.23
2023-04-29T20:55:49.778Z,10.70
2023-04-29T20:58:16.645Z,9.97
2023-04-29T21:00:43.282Z,9.03
2023-04-29T21:03:10.049Z,8.57
2023-04-29T21:05:36.545Z,8.37
2023-04-29T21:08:03.069Z,8.10
2023-04-29T21:10:29.535Z,8.40
2023-04-29T21:12:56.069Z,8.27
2023-04-29T21:15:22.973Z,8.17
2023-04-29T21:20:31.978Z,5.77
2023-04-29T21:22:58.573Z,7.70
2023-04-29T21:25:25.029Z,9.80
2023-04-29T21:27:51.662Z,6.50
2023-04-29T21:30:18.155Z,6.23
2023-04-29T21:33:12.582Z,6.60
2023-04-29T21:35:42.158Z,7.50
2023-04-29T21:38:09.171Z,6.87
2023-04-29T21:40:39.780Z,6.40
2023-04-29T21:43:06.338Z,8.93
2023-04-29T21:45:32.880Z,7.50
2023-04-29T21:48:03.853Z,10.77
2023-04-29T21:50:30.439Z,5.53
2023-04-29T21:52:56.934Z,7.87
2023-04-29T21:55:23.692Z,5.80
2023-04-29T21:57:50.429Z,7.33
2023-04-29T22:00:33.070Z,7.70
2023-04-29T22:03:00.730Z,6.30
2023-04-29T22:05:27.387Z,6.53
2023-04-29T22:07:53.956Z,9.37
2023-04-29T22:10:23.908Z,5.77
2023-04-29T22:12:50.726Z,9.93
2023-04-29T22:15:28.307Z,9.10
2023-04-29T22:17:56.082Z,6.10
2023-04-29T22:20:23.045Z,8.93
2023-04-29T22:22:49.567Z,7.37
2023-04-29T22:25:16.044Z,8.40
2023-04-29T22:27:42.537Z,8.83
2023-04-29T22:30:09.532Z,7.57
2023-04-29T22:32:36.457Z,6.20
2023-04-29T22:35:03.167Z,7.17
2023-04-29T22:37:30.416Z,7.13
2023-04-29T22:39:57.221Z,7.90
2023-04-29T22:42:23.847Z,8.17
2023-04-29T22:44:52.991Z,7.03
2023-04-29T22:47:19.485Z,6.60
2023-04-29T22:49:46.583Z,8.27
2023-04-29T22:52:13.065Z,6.87
2023-04-29T22:54:39.673Z,7.53
2023-04-29T22:57:10.667Z,6.93
2023-04-29T22:59:37.249Z,7.47
2023-04-29T23:02:04.180Z,7.63
2023-04-29T23:04:32.499Z,10.83
2023-04-29T23:06:58.996Z,10.00
2023-04-29T23:09:25.501Z,10.20
2023-04-29T23:11:51.998Z,7.93
2023-04-29T23:14:21.312Z,7.33
2023-04-29T23:16:47.828Z,11.43
2023-04-29T23:19:14.304Z,9.00
2023-04-29T23:21:41.182Z,9.10
2023-04-29T23:24:07.699Z,8.40
2023-04-29T23:26:36.422Z,9.23
2023-04-29T23:29:02.924Z,11.63
2023-04-29T23:31:29.450Z,7.57
2023-04-29T23:33:56.063Z,7.30
2023-04-29T23:36:22.621Z,9.90
2023-04-29T23:38:49.213Z,7.47
2023-04-29T23:41:15.757Z,9.03
2023-04-29T23:43:42.327Z,10.40
2023-04-29T23:46:10.328Z,7.77
2023-04-29T23:48:36.948Z,8.53
2023-04-29T23:51:03.466Z,9.47
2023-04-29T23:53:30.000Z,8.67
2023-04-29T23:55:56.536Z,10.53
2023-04-29T23:58:23.074Z,10.70
